TAF KLFT
KLFT 072335Z 0800/0824 VRB05KT 3SM BR OVC003 FM080800 VRB03KT 1/2SM FG OVC003 PROB30 0809/0812 1/2SM -SHRA OVC001 FM081500 02007KT 3SM BR BKN006 FM081800 VRB05KT P6SM BKN015 FM082100 VRB05KT P6SM BKN024=
METAR KLFT
WC KLFT
WS KLFT
WV KLFT